sensor_id;sensor_type;location;lat;lon;timestamp;temperature;humidity
41953;DHT22;63613;28.200;112.870;2023-02-10T00:01:57;12.40;80.20
41953;DHT22;63613;28.200;112.870;2023-02-10T00:04:24;12.40;80.20
41953;DHT22;63613;28.200;112.870;2023-02-10T00:06:50;12.50;80.20
41953;DHT22;63613;28.200;112.870;2023-02-10T00:09:20;12.40;80.20
41953;DHT22;63613;28.200;112.870;2023-02-10T00:11:46;12.40;80.20
41953;DHT22;63613;28.200;112.870;2023-02-10T00:14:29;12.40;80.30
41953;DHT22;63613;28.200;112.870;2023-02-10T00:16:57;12.40;80.30
41953;DHT22;63613;28.200;112.870;2023-02-10T00:19:25;12.40;80.20
41953;DHT22;63613;28.200;112.870;2023-02-10T00:21:53;12.40;80.30
41953;DHT22;63613;28.200;112.870;2023-02-10T00:24:21;12.40;80.20
41953;DHT22;63613;28.200;112.870;2023-02-10T00:26:48;12.40;80.20
41953;DHT22;63613;28.200;112.870;2023-02-10T00:29:18;12.40;80.10
41953;DHT22;63613;28.200;112.870;2023-02-10T00:31:45;12.40;80.10
41953;DHT22;63613;28.200;112.870;2023-02-10T00:34:16;12.40;80.10
41953;DHT22;63613;28.200;112.870;2023-02-10T00:36:43;12.40;80.00
41953;DHT22;63613;28.200;112.870;2023-02-10T00:39:16;12.40;80.10
41953;DHT22;63613;28.200;112.870;2023-02-10T00:41:43;12.40;80.10
41953;DHT22;63613;28.200;112.870;2023-02-10T00:44:10;12.40;80.00
41953;DHT22;63613;28.200;112.870;2023-02-10T00:46:40;12.40;80.00
41953;DHT22;63613;28.200;112.870;2023-02-10T00:49:08;12.40;80.00
41953;DHT22;63613;28.200;112.870;2023-02-10T00:51:38;12.40;80.10
41953;DHT22;63613;28.200;112.870;2023-02-10T00:54:05;12.40;79.90
41953;DHT22;63613;28.200;112.870;2023-02-10T00:56:52;12.40;79.90
41953;DHT22;63613;28.200;112.870;2023-02-10T00:59:19;12.40;80.00
41953;DHT22;63613;28.200;112.870;2023-02-10T01:01:46;12.40;80.10
41953;DHT22;63613;28.200;112.870;2023-02-10T01:04:13;12.40;80.00
41953;DHT22;63613;28.200;112.870;2023-02-10T01:06:40;12.40;80.00
41953;DHT22;63613;28.200;112.870;2023-02-10T01:09:07;12.40;80.00
41953;DHT22;63613;28.200;112.870;2023-02-10T01:11:34;12.40;79.90
41953;DHT22;63613;28.200;112.870;2023-02-10T01:14:00;12.40;80.30
41953;DHT22;63613;28.200;112.870;2023-02-10T01:16:27;12.40;80.10
41953;DHT22;63613;28.200;112.870;2023-02-10T01:18:54;12.40;80.10
41953;DHT22;63613;28.200;112.870;2023-02-10T01:21:21;12.40;80.00
41953;DHT22;63613;28.200;112.870;2023-02-10T01:23:52;12.40;80.00
41953;DHT22;63613;28.200;112.870;2023-02-10T01:26:22;12.40;80.10
41953;DHT22;63613;28.200;112.870;2023-02-10T01:28:49;12.40;79.90
41953;DHT22;63613;28.200;112.870;2023-02-10T01:31:18;12.40;80.00
41953;DHT22;63613;28.200;112.870;2023-02-10T01:33:46;12.40;80.00
41953;DHT22;63613;28.200;112.870;2023-02-10T01:36:36;12.40;79.90
41953;DHT22;63613;28.200;112.870;2023-02-10T01:39:03;12.40;79.80
41953;DHT22;63613;28.200;112.870;2023-02-10T01:41:29;12.40;79.90
41953;DHT22;63613;28.200;112.870;2023-02-10T01:44:05;12.40;79.90
41953;DHT22;63613;28.200;112.870;2023-02-10T01:46:34;12.40;79.90
41953;DHT22;63613;28.200;112.870;2023-02-10T01:49:05;12.40;80.00
41953;DHT22;63613;28.200;112.870;2023-02-10T01:51:52;12.40;80.10
41953;DHT22;63613;28.200;112.870;2023-02-10T01:54:33;12.40;80.20
41953;DHT22;63613;28.200;112.870;2023-02-10T01:57:01;12.40;80.10
41953;DHT22;63613;28.200;112.870;2023-02-10T01:59:32;12.40;80.00
41953;DHT22;63613;28.200;112.870;2023-02-10T02:02:01;12.40;80.10
41953;DHT22;63613;28.200;112.870;2023-02-10T02:04:53;12.40;80.10
41953;DHT22;63613;28.200;112.870;2023-02-10T02:07:23;12.40;80.00
41953;DHT22;63613;28.200;112.870;2023-02-10T02:09:52;12.40;80.00
41953;DHT22;63613;28.200;112.870;2023-02-10T02:12:47;12.40;80.00
41953;DHT22;63613;28.200;112.870;2023-02-10T02:15:22;12.40;80.00
41953;DHT22;63613;28.200;112.870;2023-02-10T02:18:19;12.40;80.10
41953;DHT22;63613;28.200;112.870;2023-02-10T02:23:47;12.40;80.00
41953;DHT22;63613;28.200;112.870;2023-02-10T02:31:54;12.40;79.90
41953;DHT22;63613;28.200;112.870;2023-02-10T02:37:26;12.40;79.90
41953;DHT22;63613;28.200;112.870;2023-02-10T02:39:55;12.40;80.00
41953;DHT22;63613;28.200;112.870;2023-02-10T02:42:29;12.40;80.10
41953;DHT22;63613;28.200;112.870;2023-02-10T02:45:02;12.40;80.10
41953;DHT22;63613;28.200;112.870;2023-02-10T02:50:35;12.40;80.00
41953;DHT22;63613;28.200;112.870;2023-02-10T02:53:33;12.40;80.00
41953;DHT22;63613;28.200;112.870;2023-02-10T02:56:28;12.30;80.00
41953;DHT22;63613;28.200;112.870;2023-02-10T03:02:07;12.30;80.00
41953;DHT22;63613;28.200;112.870;2023-02-10T03:04:36;12.30;80.10
41953;DHT22;63613;28.200;112.870;2023-02-10T03:07:05;12.40;80.20
41953;DHT22;63613;28.200;112.870;2023-02-10T03:09:52;12.30;80.20
41953;DHT22;63613;28.200;112.870;2023-02-10T03:12:19;12.30;80.30
41953;DHT22;63613;28.200;112.870;2023-02-10T03:14:45;12.30;80.30
41953;DHT22;63613;28.200;112.870;2023-02-10T03:17:12;12.30;80.20
41953;DHT22;63613;28.200;112.870;2023-02-10T03:19:39;12.30;80.30
41953;DHT22;63613;28.200;112.870;2023-02-10T03:22:08;12.30;80.20
41953;DHT22;63613;28.200;112.870;2023-02-10T03:24:38;12.30;80.10
41953;DHT22;63613;28.200;112.870;2023-02-10T03:27:04;12.30;80.20
41953;DHT22;63613;28.200;112.870;2023-02-10T03:29:32;12.30;80.20
41953;DHT22;63613;28.200;112.870;2023-02-10T03:31:58;12.30;80.20
41953;DHT22;63613;28.200;112.870;2023-02-10T03:34:28;12.30;80.20
41953;DHT22;63613;28.200;112.870;2023-02-10T03:36:55;12.30;80.30
41953;DHT22;63613;28.200;112.870;2023-02-10T03:39:22;12.30;80.20
41953;DHT22;63613;28.200;112.870;2023-02-10T03:42:12;12.30;80.20
41953;DHT22;63613;28.200;112.870;2023-02-10T03:44:39;12.30;80.20
41953;DHT22;63613;28.200;112.870;2023-02-10T03:47:06;12.30;80.30
41953;DHT22;63613;28.200;112.870;2023-02-10T03:49:33;12.30;80.30
41953;DHT22;63613;28.200;112.870;2023-02-10T03:51:59;12.30;80.30
41953;DHT22;63613;28.200;112.870;2023-02-10T03:54:26;12.30;80.40
41953;DHT22;63613;28.200;112.870;2023-02-10T03:56:53;12.30;80.40
41953;DHT22;63613;28.200;112.870;2023-02-10T03:59:20;12.40;80.40
41953;DHT22;63613;28.200;112.870;2023-02-10T04:01:47;12.30;80.30
41953;DHT22;63613;28.200;112.870;2023-02-10T04:04:14;12.30;80.40
41953;DHT22;63613;28.200;112.870;2023-02-10T04:06:41;12.30;80.40
41953;DHT22;63613;28.200;112.870;2023-02-10T04:09:07;12.30;80.40
41953;DHT22;63613;28.200;112.870;2023-02-10T04:11:34;12.30;80.50
41953;DHT22;63613;28.200;112.870;2023-02-10T04:14:01;12.30;80.40
41953;DHT22;63613;28.200;112.870;2023-02-10T04:16:29;12.40;80.40
41953;DHT22;63613;28.200;112.870;2023-02-10T04:18:56;12.40;80.40
41953;DHT22;63613;28.200;112.870;2023-02-10T04:21:23;12.30;80.40
41953;DHT22;63613;28.200;112.870;2023-02-10T04:26:38;12.30;80.40
41953;DHT22;63613;28.200;112.870;2023-02-10T04:29:05;12.40;80.40
41953;DHT22;63613;28.200;112.870;2023-02-10T04:31:31;12.40;80.40
41953;DHT22;63613;28.200;112.870;2023-02-10T04:33:58;12.40;80.40
41953;DHT22;63613;28.200;112.870;2023-02-10T04:36:25;12.40;80.30
41953;DHT22;63613;28.200;112.870;2023-02-10T04:38:52;12.40;80.40
41953;DHT22;63613;28.200;112.870;2023-02-10T04:41:20;12.40;80.40
41953;DHT22;63613;28.200;112.870;2023-02-10T04:44:07;12.40;80.40
41953;DHT22;63613;28.200;112.870;2023-02-10T04:46:38;12.30;80.40
41953;DHT22;63613;28.200;112.870;2023-02-10T04:49:04;12.40;80.40
41953;DHT22;63613;28.200;112.870;2023-02-10T04:51:33;12.40;80.40
41953;DHT22;63613;28.200;112.870;2023-02-10T04:54:00;12.40;80.40
41953;DHT22;63613;28.200;112.870;2023-02-10T04:56:27;12.40;80.20
41953;DHT22;63613;28.200;112.870;2023-02-10T04:58:54;12.40;80.30
41953;DHT22;63613;28.200;112.870;2023-02-10T05:01:21;12.40;80.20
41953;DHT22;63613;28.200;112.870;2023-02-10T05:03:48;12.40;80.10
41953;DHT22;63613;28.200;112.870;2023-02-10T05:06:15;12.30;80.10
41953;DHT22;63613;28.200;112.870;2023-02-10T05:08:43;12.30;80.10
41953;DHT22;63613;28.200;112.870;2023-02-10T05:11:12;12.40;80.10
41953;DHT22;63613;28.200;112.870;2023-02-10T05:13:39;12.40;80.20
41953;DHT22;63613;28.200;112.870;2023-02-10T05:16:10;12.40;80.20
41953;DHT22;63613;28.200;112.870;2023-02-10T05:18:38;12.40;80.30
41953;DHT22;63613;28.200;112.870;2023-02-10T05:21:11;12.30;80.30
41953;DHT22;63613;28.200;112.870;2023-02-10T05:23:39;12.40;80.20
41953;DHT22;63613;28.200;112.870;2023-02-10T05:26:06;12.40;80.30
41953;DHT22;63613;28.200;112.870;2023-02-10T05:28:33;12.40;80.20
41953;DHT22;63613;28.200;112.870;2023-02-10T05:31:00;12.40;80.20
41953;DHT22;63613;28.200;112.870;2023-02-10T05:33:27;12.40;80.30
41953;DHT22;63613;28.200;112.870;2023-02-10T05:35:53;12.40;80.30
41953;DHT22;63613;28.200;112.870;2023-02-10T05:38:20;12.40;80.40
41953;DHT22;63613;28.200;112.870;2023-02-10T05:40:49;12.60;80.20
41953;DHT22;63613;28.200;112.870;2023-02-10T05:43:15;12.80;79.70
41953;DHT22;63613;28.200;112.870;2023-02-10T06:16:37;13.40;78.20
41953;DHT22;63613;28.200;112.870;2023-02-10T06:19:04;13.40;78.10
41953;DHT22;63613;28.200;112.870;2023-02-10T06:21:31;13.60;77.70
41953;DHT22;63613;28.200;112.870;2023-02-10T06:23:58;13.70;77.20
41953;DHT22;63613;28.200;112.870;2023-02-10T06:26:25;13.80;77.00
41953;DHT22;63613;28.200;112.870;2023-02-10T06:28:54;13.80;76.70
41953;DHT22;63613;28.200;112.870;2023-02-10T06:31:22;13.90;76.50
41953;DHT22;63613;28.200;112.870;2023-02-10T06:33:54;13.90;76.30
41953;DHT22;63613;28.200;112.870;2023-02-10T06:36:21;14.00;76.10
41953;DHT22;63613;28.200;112.870;2023-02-10T06:38:48;14.00;75.90
41953;DHT22;63613;28.200;112.870;2023-02-10T06:41:16;14.00;75.80
41953;DHT22;63613;28.200;112.870;2023-02-10T06:43:45;14.10;75.80
41953;DHT22;63613;28.200;112.870;2023-02-10T06:46:15;14.10;76.00
41953;DHT22;63613;28.200;112.870;2023-02-10T06:48:43;14.10;76.80
41953;DHT22;63613;28.200;112.870;2023-02-10T06:51:10;14.10;76.90
41953;DHT22;63613;28.200;112.870;2023-02-10T06:53:37;14.10;77.00
41953;DHT22;63613;28.200;112.870;2023-02-10T06:56:04;14.10;77.10
41953;DHT22;63613;28.200;112.870;2023-02-10T06:58:34;14.10;77.20
41953;DHT22;63613;28.200;112.870;2023-02-10T07:01:06;14.10;77.30
41953;DHT22;63613;28.200;112.870;2023-02-10T07:03:34;14.10;77.20
41953;DHT22;63613;28.200;112.870;2023-02-10T07:06:01;14.20;77.20
41953;DHT22;63613;28.200;112.870;2023-02-10T07:08:28;14.20;77.20
41953;DHT22;63613;28.200;112.870;2023-02-10T07:10:54;14.30;77.10
41953;DHT22;63613;28.200;112.870;2023-02-10T07:13:21;14.30;77.00
41953;DHT22;63613;28.200;112.870;2023-02-10T07:15:48;14.40;76.80
41953;DHT22;63613;28.200;112.870;2023-02-10T07:18:15;14.30;76.70
41953;DHT22;63613;28.200;112.870;2023-02-10T07:20:42;14.30;77.00
41953;DHT22;63613;28.200;112.870;2023-02-10T07:23:12;14.30;76.90
41953;DHT22;63613;28.200;112.870;2023-02-10T07:25:39;14.30;76.70
41953;DHT22;63613;28.200;112.870;2023-02-10T07:28:06;14.40;76.30
41953;DHT22;63613;28.200;112.870;2023-02-10T07:30:34;14.40;76.00
41953;DHT22;63613;28.200;112.870;2023-02-10T07:33:02;14.40;75.60
41953;DHT22;63613;28.200;112.870;2023-02-10T07:35:31;14.40;75.40
41953;DHT22;63613;28.200;112.870;2023-02-10T07:38:18;14.40;75.30
41953;DHT22;63613;28.200;112.870;2023-02-10T07:40:46;14.50;75.30
41953;DHT22;63613;28.200;112.870;2023-02-10T07:43:15;14.50;75.20
41953;DHT22;63613;28.200;112.870;2023-02-10T07:45:45;14.50;75.10
41953;DHT22;63613;28.200;112.870;2023-02-10T07:48:12;14.40;75.10
41953;DHT22;63613;28.200;112.870;2023-02-10T07:50:39;14.40;75.20
41953;DHT22;63613;28.200;112.870;2023-02-10T07:53:06;14.40;75.30
41953;DHT22;63613;28.200;112.870;2023-02-10T07:55:32;14.40;75.30
41953;DHT22;63613;28.200;112.870;2023-02-10T07:57:59;14.40;75.80
41953;DHT22;63613;28.200;112.870;2023-02-10T08:00:27;14.30;76.70
41953;DHT22;63613;28.200;112.870;2023-02-10T08:02:54;14.30;77.60
41953;DHT22;63613;28.200;112.870;2023-02-10T08:05:21;14.30;78.00
41953;DHT22;63613;28.200;112.870;2023-02-10T08:07:50;14.30;78.20
41953;DHT22;63613;28.200;112.870;2023-02-10T08:10:38;14.30;78.10
41953;DHT22;63613;28.200;112.870;2023-02-10T08:13:05;14.30;78.10
41953;DHT22;63613;28.200;112.870;2023-02-10T08:15:52;14.30;77.90
41953;DHT22;63613;28.200;112.870;2023-02-10T08:18:19;14.20;78.00
41953;DHT22;63613;28.200;112.870;2023-02-10T08:20:45;14.20;77.90
41953;DHT22;63613;28.200;112.870;2023-02-10T08:23:15;14.20;77.80
41953;DHT22;63613;28.200;112.870;2023-02-10T08:25:45;14.20;77.80
41953;DHT22;63613;28.200;112.870;2023-02-10T08:28:33;14.10;77.70
41953;DHT22;63613;28.200;112.870;2023-02-10T08:31:02;14.10;77.80
41953;DHT22;63613;28.200;112.870;2023-02-10T08:33:29;14.10;77.60
41953;DHT22;63613;28.200;112.870;2023-02-10T08:36:19;14.10;77.40
41953;DHT22;63613;28.200;112.870;2023-02-10T08:38:47;14.10;77.50
41953;DHT22;63613;28.200;112.870;2023-02-10T08:41:14;14.10;77.40
41953;DHT22;63613;28.200;112.870;2023-02-10T08:43:42;14.10;77.50
41953;DHT22;63613;28.200;112.870;2023-02-10T08:46:09;14.00;77.20
41953;DHT22;63613;28.200;112.870;2023-02-10T08:48:36;14.00;77.30
41953;DHT22;63613;28.200;112.870;2023-02-10T08:51:09;13.90;77.40
41953;DHT22;63613;28.200;112.870;2023-02-10T08:53:37;13.90;77.40
41953;DHT22;63613;28.200;112.870;2023-02-10T08:56:07;13.90;77.40
41953;DHT22;63613;28.200;112.870;2023-02-10T08:58:35;13.90;77.50
41953;DHT22;63613;28.200;112.870;2023-02-10T09:01:11;13.90;77.50
41953;DHT22;63613;28.200;112.870;2023-02-10T09:03:40;13.90;77.50
41953;DHT22;63613;28.200;112.870;2023-02-10T09:06:28;13.90;77.60
41953;DHT22;63613;28.200;112.870;2023-02-10T09:08:56;13.90;77.60
41953;DHT22;63613;28.200;112.870;2023-02-10T09:11:23;13.80;77.60
41953;DHT22;63613;28.200;112.870;2023-02-10T09:13:51;13.80;77.60
41953;DHT22;63613;28.200;112.870;2023-02-10T09:16:18;13.80;77.60
41953;DHT22;63613;28.200;112.870;2023-02-10T09:18:46;13.80;77.70
41953;DHT22;63613;28.200;112.870;2023-02-10T09:21:13;13.70;77.70
41953;DHT22;63613;28.200;112.870;2023-02-10T09:23:40;13.70;77.80
41953;DHT22;63613;28.200;112.870;2023-02-10T09:26:07;13.70;77.80
41953;DHT22;63613;28.200;112.870;2023-02-10T09:28:34;13.70;77.80
41953;DHT22;63613;28.200;112.870;2023-02-10T09:31:05;13.60;77.90
41953;DHT22;63613;28.200;112.870;2023-02-10T09:33:52;13.60;77.90
41953;DHT22;63613;28.200;112.870;2023-02-10T09:36:20;13.60;77.90
41953;DHT22;63613;28.200;112.870;2023-02-10T09:38:47;13.60;77.90
41953;DHT22;63613;28.200;112.870;2023-02-10T09:41:23;13.60;77.90
41953;DHT22;63613;28.200;112.870;2023-02-10T09:44:02;13.60;77.90
41953;DHT22;63613;28.200;112.870;2023-02-10T09:52:36;13.50;78.10
41953;DHT22;63613;28.200;112.870;2023-02-10T09:55:24;13.50;78.20
41953;DHT22;63613;28.200;112.870;2023-02-10T09:58:16;13.50;78.20
41953;DHT22;63613;28.200;112.870;2023-02-10T10:00:46;13.50;78.30
41953;DHT22;63613;28.200;112.870;2023-02-10T10:03:21;13.50;78.30
41953;DHT22;63613;28.200;112.870;2023-02-10T10:06:25;13.50;78.30
41953;DHT22;63613;28.200;112.870;2023-02-10T10:11:43;13.40;78.30
41953;DHT22;63613;28.200;112.870;2023-02-10T10:28:39;13.40;78.60
41953;DHT22;63613;28.200;112.870;2023-02-10T10:33:45;13.30;78.50
41953;DHT22;63613;28.200;112.870;2023-02-10T10:36:22;13.30;78.40
41953;DHT22;63613;28.200;112.870;2023-02-10T10:38:54;13.40;78.40
41953;DHT22;63613;28.200;112.870;2023-02-10T10:41:30;13.40;78.40
41953;DHT22;63613;28.200;112.870;2023-02-10T10:43:58;13.30;78.30
41953;DHT22;63613;28.200;112.870;2023-02-10T10:46:35;13.40;77.80
41953;DHT22;63613;28.200;112.870;2023-02-10T10:49:06;13.30;76.30
41953;DHT22;63613;28.200;112.870;2023-02-10T10:51:33;13.30;76.00
41953;DHT22;63613;28.200;112.870;2023-02-10T10:54:00;13.20;75.50
41953;DHT22;63613;28.200;112.870;2023-02-10T11:01:44;13.10;76.80
41953;DHT22;63613;28.200;112.870;2023-02-10T11:04:18;13.10;77.20
41953;DHT22;63613;28.200;112.870;2023-02-10T11:06:51;13.20;77.40
41953;DHT22;63613;28.200;112.870;2023-02-10T11:09:23;13.20;77.40
41953;DHT22;63613;28.200;112.870;2023-02-10T11:12:29;13.10;77.60
41953;DHT22;63613;28.200;112.870;2023-02-10T11:14:57;13.10;77.90
41953;DHT22;63613;28.200;112.870;2023-02-10T11:17:39;13.10;78.10
41953;DHT22;63613;28.200;112.870;2023-02-10T11:22:39;13.10;78.40
41953;DHT22;63613;28.200;112.870;2023-02-10T11:28:19;13.10;78.80
41953;DHT22;63613;28.200;112.870;2023-02-10T11:30:53;13.10;79.00
41953;DHT22;63613;28.200;112.870;2023-02-10T11:33:28;13.10;79.10
41953;DHT22;63613;28.200;112.870;2023-02-10T11:36:09;13.10;79.10
41953;DHT22;63613;28.200;112.870;2023-02-10T11:38:45;13.00;79.20
41953;DHT22;63613;28.200;112.870;2023-02-10T11:41:12;13.00;79.20
41953;DHT22;63613;28.200;112.870;2023-02-10T11:43:45;13.10;79.30
41953;DHT22;63613;28.200;112.870;2023-02-10T11:46:23;13.00;79.30
41953;DHT22;63613;28.200;112.870;2023-02-10T11:49:04;13.00;79.40
41953;DHT22;63613;28.200;112.870;2023-02-10T11:51:33;13.00;79.40
41953;DHT22;63613;28.200;112.870;2023-02-10T11:54:00;13.00;79.30
41953;DHT22;63613;28.200;112.870;2023-02-10T11:59:37;13.00;79.40
41953;DHT22;63613;28.200;112.870;2023-02-10T12:11:38;13.00;79.40
41953;DHT22;63613;28.200;112.870;2023-02-10T12:27:45;13.00;79.60
41953;DHT22;63613;28.200;112.870;2023-02-10T12:30:38;13.00;79.60
41953;DHT22;63613;28.200;112.870;2023-02-10T12:39:03;13.00;79.70
41953;DHT22;63613;28.200;112.870;2023-02-10T12:41:56;13.00;79.70
41953;DHT22;63613;28.200;112.870;2023-02-10T12:44:42;13.00;79.70
41953;DHT22;63613;28.200;112.870;2023-02-10T12:52:58;13.00;79.80
41953;DHT22;63613;28.200;112.870;2023-02-10T12:58:15;13.00;79.70
41953;DHT22;63613;28.200;112.870;2023-02-10T13:00:51;13.00;79.70
41953;DHT22;63613;28.200;112.870;2023-02-10T13:03:34;13.00;79.80
41953;DHT22;63613;28.200;112.870;2023-02-10T13:12:39;12.90;79.70
41953;DHT22;63613;28.200;112.870;2023-02-10T13:15:29;13.00;79.70
41953;DHT22;63613;28.200;112.870;2023-02-10T13:17:57;12.90;79.80
41953;DHT22;63613;28.200;112.870;2023-02-10T13:20:38;12.90;79.90
41953;DHT22;63613;28.200;112.870;2023-02-10T13:23:14;12.90;79.90
41953;DHT22;63613;28.200;112.870;2023-02-10T13:29:06;12.90;79.80
41953;DHT22;63613;28.200;112.870;2023-02-10T13:34:51;12.90;80.10
41953;DHT22;63613;28.200;112.870;2023-02-10T13:37:42;12.90;80.20
41953;DHT22;63613;28.200;112.870;2023-02-10T13:40:53;12.90;80.10
41953;DHT22;63613;28.200;112.870;2023-02-10T13:43:30;12.90;80.10
41953;DHT22;63613;28.200;112.870;2023-02-10T13:46:23;12.90;80.20
41953;DHT22;63613;28.200;112.870;2023-02-10T13:48:57;12.90;80.30
41953;DHT22;63613;28.200;112.870;2023-02-10T13:51:30;12.90;80.20
41953;DHT22;63613;28.200;112.870;2023-02-10T13:54:00;12.90;80.30
41953;DHT22;63613;28.200;112.870;2023-02-10T13:56:31;12.90;80.30
41953;DHT22;63613;28.200;112.870;2023-02-10T14:02:20;12.90;80.40
41953;DHT22;63613;28.200;112.870;2023-02-10T14:04:54;12.90;80.40
41953;DHT22;63613;28.200;112.870;2023-02-10T14:15:30;12.90;80.50
41953;DHT22;63613;28.200;112.870;2023-02-10T14:18:20;12.90;80.60
41953;DHT22;63613;28.200;112.870;2023-02-10T14:20:56;12.90;80.50
41953;DHT22;63613;28.200;112.870;2023-02-10T14:23:23;12.90;80.50
41953;DHT22;63613;28.200;112.870;2023-02-10T14:25:56;12.90;80.50
41953;DHT22;63613;28.200;112.870;2023-02-10T14:28:37;12.90;80.50
41953;DHT22;63613;28.200;112.870;2023-02-10T14:31:13;12.90;80.50
41953;DHT22;63613;28.200;112.870;2023-02-10T14:33:55;12.90;80.40
41953;DHT22;63613;28.200;112.870;2023-02-10T14:40:02;12.80;80.50
41953;DHT22;63613;28.200;112.870;2023-02-10T14:42:32;12.80;80.60
41953;DHT22;63613;28.200;112.870;2023-02-10T14:45:06;12.80;80.60
41953;DHT22;63613;28.200;112.870;2023-02-10T14:47:36;12.90;80.70
41953;DHT22;63613;28.200;112.870;2023-02-10T14:50:07;12.80;80.70
41953;DHT22;63613;28.200;112.870;2023-02-10T14:52:48;12.80;80.80
41953;DHT22;63613;28.200;112.870;2023-02-10T14:55:27;12.90;80.70
41953;DHT22;63613;28.200;112.870;2023-02-10T14:58:14;12.80;80.70
41953;DHT22;63613;28.200;112.870;2023-02-10T15:03:32;12.90;80.80
41953;DHT22;63613;28.200;112.870;2023-02-10T15:06:21;12.90;80.80
41953;DHT22;63613;28.200;112.870;2023-02-10T15:09:02;12.90;80.70
41953;DHT22;63613;28.200;112.870;2023-02-10T15:11:50;12.90;80.70
41953;DHT22;63613;28.200;112.870;2023-02-10T15:17:20;12.90;80.70
41953;DHT22;63613;28.200;112.870;2023-02-10T15:20:19;12.90;80.60
41953;DHT22;63613;28.200;112.870;2023-02-10T15:23:05;12.80;80.60
41953;DHT22;63613;28.200;112.870;2023-02-10T15:25:37;12.80;80.60
41953;DHT22;63613;28.200;112.870;2023-02-10T15:33:59;12.80;80.60
41953;DHT22;63613;28.200;112.870;2023-02-10T15:36:30;12.80;80.70
41953;DHT22;63613;28.200;112.870;2023-02-10T15:42:27;12.90;80.70
41953;DHT22;63613;28.200;112.870;2023-02-10T15:45:22;12.80;80.80
41953;DHT22;63613;28.200;112.870;2023-02-10T15:48:01;12.80;80.70
41953;DHT22;63613;28.200;112.870;2023-02-10T15:50:29;12.90;80.70
41953;DHT22;63613;28.200;112.870;2023-02-10T15:52:57;12.80;80.80
41953;DHT22;63613;28.200;112.870;2023-02-10T15:55:30;12.90;80.70
41953;DHT22;63613;28.200;112.870;2023-02-10T15:57:57;12.80;80.70
41953;DHT22;63613;28.200;112.870;2023-02-10T16:00:29;12.80;80.60
41953;DHT22;63613;28.200;112.870;2023-02-10T16:02:57;12.80;80.60
41953;DHT22;63613;28.200;112.870;2023-02-10T16:05:26;12.90;80.60
41953;DHT22;63613;28.200;112.870;2023-02-10T16:08:03;12.80;80.60
41953;DHT22;63613;28.200;112.870;2023-02-10T16:10:35;12.90;80.60
41953;DHT22;63613;28.200;112.870;2023-02-10T16:13:02;12.80;80.60
41953;DHT22;63613;28.200;112.870;2023-02-10T16:15:29;12.90;80.60
41953;DHT22;63613;28.200;112.870;2023-02-10T16:17:58;12.80;80.60
41953;DHT22;63613;28.200;112.870;2023-02-10T16:20:32;12.80;80.60
41953;DHT22;63613;28.200;112.870;2023-02-10T16:22:59;12.80;80.60
41953;DHT22;63613;28.200;112.870;2023-02-10T16:25:27;12.80;80.60
41953;DHT22;63613;28.200;112.870;2023-02-10T16:27:54;12.80;80.60
41953;DHT22;63613;28.200;112.870;2023-02-10T16:30:29;12.80;80.60
41953;DHT22;63613;28.200;112.870;2023-02-10T16:32:56;12.80;80.60
41953;DHT22;63613;28.200;112.870;2023-02-10T16:35:23;12.80;80.60
41953;DHT22;63613;28.200;112.870;2023-02-10T16:37:54;12.80;80.60
41953;DHT22;63613;28.200;112.870;2023-02-10T16:40:29;12.80;80.40
41953;DHT22;63613;28.200;112.870;2023-02-10T16:42:57;12.80;80.50
41953;DHT22;63613;28.200;112.870;2023-02-10T16:45:25;12.80;80.60
41953;DHT22;63613;28.200;112.870;2023-02-10T16:47:54;12.80;80.60
41953;DHT22;63613;28.200;112.870;2023-02-10T16:50:39;12.80;80.70
41953;DHT22;63613;28.200;112.870;2023-02-10T16:53:08;12.80;80.70
41953;DHT22;63613;28.200;112.870;2023-02-10T16:55:39;12.80;80.70
41953;DHT22;63613;28.200;112.870;2023-02-10T16:58:14;12.80;80.70
41953;DHT22;63613;28.200;112.870;2023-02-10T17:00:42;12.80;80.70
41953;DHT22;63613;28.200;112.870;2023-02-10T17:03:10;12.80;80.70
41953;DHT22;63613;28.200;112.870;2023-02-10T17:05:39;12.80;80.80
41953;DHT22;63613;28.200;112.870;2023-02-10T17:08:06;12.80;80.80
41953;DHT22;63613;28.200;112.870;2023-02-10T17:10:33;12.80;80.60
41953;DHT22;63613;28.200;112.870;2023-02-10T17:13:04;12.80;80.60
41953;DHT22;63613;28.200;112.870;2023-02-10T17:15:31;12.80;80.70
41953;DHT22;63613;28.200;112.870;2023-02-10T17:17:58;12.80;80.70
41953;DHT22;63613;28.200;112.870;2023-02-10T17:20:29;12.80;80.70
41953;DHT22;63613;28.200;112.870;2023-02-10T17:22:56;12.90;80.60
41953;DHT22;63613;28.200;112.870;2023-02-10T17:25:24;12.80;80.60
41953;DHT22;63613;28.200;112.870;2023-02-10T17:27:52;12.80;80.60
41953;DHT22;63613;28.200;112.870;2023-02-10T17:30:21;12.80;80.50
41953;DHT22;63613;28.200;112.870;2023-02-10T17:32:49;12.80;80.50
41953;DHT22;63613;28.200;112.870;2023-02-10T17:35:19;12.80;80.50
41953;DHT22;63613;28.200;112.870;2023-02-10T17:37:47;12.80;80.50
41953;DHT22;63613;28.200;112.870;2023-02-10T17:40:17;12.80;80.40
41953;DHT22;63613;28.200;112.870;2023-02-10T17:42:51;12.80;80.30
41953;DHT22;63613;28.200;112.870;2023-02-10T17:45:18;12.80;80.20
41953;DHT22;63613;28.200;112.870;2023-02-10T17:47:45;12.80;80.10
41953;DHT22;63613;28.200;112.870;2023-02-10T17:50:15;12.80;80.10
41953;DHT22;63613;28.200;112.870;2023-02-10T17:52:42;12.80;80.10
41953;DHT22;63613;28.200;112.870;2023-02-10T17:55:09;12.70;80.10
41953;DHT22;63613;28.200;112.870;2023-02-10T17:57:39;12.80;80.10
41953;DHT22;63613;28.200;112.870;2023-02-10T18:00:07;12.80;80.00
41953;DHT22;63613;28.200;112.870;2023-02-10T18:02:34;12.80;80.00
41953;DHT22;63613;28.200;112.870;2023-02-10T18:05:01;12.80;80.00
41953;DHT22;63613;28.200;112.870;2023-02-10T18:07:48;12.70;80.00
41953;DHT22;63613;28.200;112.870;2023-02-10T18:10:17;12.80;79.90
41953;DHT22;63613;28.200;112.870;2023-02-10T18:12:44;12.70;79.90
41953;DHT22;63613;28.200;112.870;2023-02-10T18:15:11;12.70;80.00
41953;DHT22;63613;28.200;112.870;2023-02-10T18:17:58;12.70;80.00
41953;DHT22;63613;28.200;112.870;2023-02-10T18:20:25;12.70;80.00
41953;DHT22;63613;28.200;112.870;2023-02-10T18:22:52;12.70;79.90